Time;durP1;ratioP1;P1;durP2;ratioP2;P2;SDS_P1;SDS_P2;PMS_P1;PMS_P2;Temp;Humidity;BMP_temperature;BMP_pressure;BME280_temperature;BME280_humidity;BME280_pressure;Samples;Min_cycle;Max_cycle;Signal;HPM_P1;HPM_P2
2021/09/15 01:10:45;;;;;;;12.88;7.13;;;20.90;93.70;;;;;;6218344;22;20040;-77
2021/09/15 01:13:12;;;;;;;10.52;7.72;;;20.90;93.60;;;;;;6247972;23;20357;-77
2021/09/15 01:15:38;;;;;;;14.52;6.85;;;20.90;93.70;;;;;;6247809;22;20300;-77
2021/09/15 01:18:14;;;;;;;9.00;7.07;;;20.90;93.90;;;;;;6247513;23;20015;-78
2021/09/15 01:20:40;;;;;;;10.48;6.97;;;20.90;93.50;;;;;;6247452;22;20007;-77
2021/09/15 01:23:06;;;;;;;10.18;7.40;;;20.90;93.60;;;;;;6247102;23;20012;-77
2021/09/15 01:25:31;;;;;;;19.33;7.97;;;20.90;93.50;;;;;;6245933;23;20008;-78
2021/09/15 01:27:57;;;;;;;16.98;8.10;;;20.90;93.50;;;;;;6245760;23;20004;-77
2021/09/15 01:30:23;;;;;;;16.30;7.50;;;20.90;93.40;;;;;;6247146;23;20008;-76
2021/09/15 01:32:48;;;;;;;10.85;7.53;;;20.90;93.50;;;;;;6247027;23;20008;-77
2021/09/15 01:35:14;;;;;;;10.60;7.70;;;20.90;93.40;;;;;;6247206;23;20460;-77
2021/09/15 01:37:40;;;;;;;8.52;7.00;;;20.90;93.30;;;;;;6247061;23;20355;-76
2021/09/15 01:40:06;;;;;;;16.52;7.25;;;20.90;93.20;;;;;;6247392;23;20004;-79
2021/09/15 01:42:32;;;;;;;12.20;6.93;;;20.90;93.20;;;;;;6246965;22;20000;-78
2021/09/15 01:44:57;;;;;;;15.32;7.55;;;20.90;93.20;;;;;;6247022;22;20004;-77
2021/09/15 01:47:23;;;;;;;14.30;7.93;;;20.90;93.10;;;;;;6247030;22;20095;-77
2021/09/15 01:49:49;;;;;;;10.60;6.57;;;20.90;92.90;;;;;;6247095;23;20130;-77
2021/09/15 01:52:16;;;;;;;9.02;6.60;;;20.90;92.80;;;;;;6246980;23;20089;-78
2021/09/15 01:54:42;;;;;;;30.10;8.02;;;21.00;92.80;;;;;;6247450;22;19996;-77
2021/09/15 01:57:08;;;;;;;10.25;6.95;;;20.90;92.90;;;;;;6246948;23;20070;-77
2021/09/15 01:59:34;;;;;;;12.50;7.18;;;20.90;92.80;;;;;;6245471;23;20004;-78
2021/09/15 02:02:00;;;;;;;8.85;6.65;;;20.90;92.80;;;;;;6247197;22;20035;-77
2021/09/15 02:04:26;;;;;;;15.73;7.28;;;20.90;92.70;;;;;;6246914;23;20003;-77
2021/09/15 02:06:52;;;;;;;12.25;7.07;;;21.00;93.00;;;;;;6246883;23;20042;-78
2021/09/15 02:09:18;;;;;;;8.48;6.32;;;20.90;92.60;;;;;;6246751;23;20012;-77
2021/09/15 02:11:44;;;;;;;15.80;7.07;;;20.90;92.60;;;;;;6246824;22;20015;-78
2021/09/15 02:14:10;;;;;;;9.93;6.75;;;20.90;92.50;;;;;;6247299;23;19996;-76
2021/09/15 02:16:35;;;;;;;13.35;7.03;;;20.90;92.50;;;;;;6246898;22;20370;-77
2021/09/15 02:19:02;;;;;;;9.48;6.50;;;20.90;92.40;;;;;;6246821;23;19996;-77
2021/09/15 02:21:28;;;;;;;11.00;6.65;;;20.90;92.30;;;;;;6246882;23;20004;-77
2021/09/15 02:23:55;;;;;;;10.00;6.90;;;20.90;92.50;;;;;;6246617;22;20315;-78
2021/09/15 02:26:21;;;;;;;8.88;6.72;;;20.90;92.40;;;;;;6246788;22;20000;-76
2021/09/15 02:28:46;;;;;;;7.72;6.55;;;20.90;92.30;;;;;;6246557;22;20082;-78
2021/09/15 02:31:12;;;;;;;12.80;6.88;;;20.90;92.30;;;;;;6246769;23;20004;-78
2021/09/15 02:33:38;;;;;;;13.25;6.78;;;20.90;92.10;;;;;;6246854;22;20010;-77
2021/09/15 02:36:04;;;;;;;10.48;6.22;;;20.90;91.90;;;;;;6246356;22;20008;-77
2021/09/15 02:38:30;;;;;;;13.50;7.00;;;20.90;91.80;;;;;;6247206;22;20011;-77
2021/09/15 02:40:56;;;;;;;12.68;6.50;;;20.90;91.70;;;;;;6246713;22;20331;-77
2021/09/15 02:43:22;;;;;;;8.77;6.97;;;20.90;91.50;;;;;;6246671;22;20000;-78
2021/09/15 02:45:47;;;;;;;10.68;5.82;;;21.00;91.50;;;;;;6246139;22;20101;-77
2021/09/15 02:48:13;;;;;;;9.40;6.40;;;20.90;91.40;;;;;;6246546;23;20055;-77
2021/09/15 02:50:39;;;;;;;7.70;6.10;;;20.90;91.40;;;;;;6246615;23;20000;-77
2021/09/15 02:53:05;;;;;;;12.65;6.00;;;20.90;91.30;;;;;;6246257;23;20019;-80
2021/09/15 02:55:30;;;;;;;8.15;5.70;;;20.90;91.20;;;;;;6246245;22;20000;-77
2021/09/15 02:57:56;;;;;;;11.68;6.40;;;20.90;90.70;;;;;;6246471;22;20004;-76
2021/09/15 03:00:22;;;;;;;9.75;6.47;;;20.90;90.40;;;;;;6246239;23;19996;-77
2021/09/15 03:02:47;;;;;;;10.80;6.50;;;20.90;90.50;;;;;;6246411;22;20493;-77
2021/09/15 03:05:13;;;;;;;11.45;6.00;;;20.90;90.20;;;;;;6246355;23;20046;-77
2021/09/15 03:07:39;;;;;;;13.40;6.05;;;20.90;90.20;;;;;;6246317;23;19996;-77
2021/09/15 03:10:06;;;;;;;12.30;5.97;;;20.90;90.00;;;;;;6246129;23;20495;-77
2021/09/15 03:12:32;;;;;;;9.77;5.55;;;20.90;89.70;;;;;;6244554;23;20016;-77
2021/09/15 03:14:58;;;;;;;14.38;6.40;;;21.00;89.20;;;;;;6246016;22;20460;-76
2021/09/15 03:17:23;;;;;;;7.57;5.45;;;20.90;88.90;;;;;;6246331;23;20000;-78
2021/09/15 03:19:49;;;;;;;9.48;5.90;;;20.90;88.40;;;;;;6246253;23;20057;-78
2021/09/15 03:22:14;;;;;;;15.55;6.18;;;21.00;88.40;;;;;;6244801;23;20342;-77
2021/09/15 03:24:40;;;;;;;11.07;5.90;;;21.00;87.90;;;;;;6246109;23;20478;-77
2021/09/15 03:27:06;;;;;;;8.45;5.80;;;21.00;87.90;;;;;;6246294;22;20075;-77
2021/09/15 03:29:33;;;;;;;11.77;5.72;;;21.00;87.80;;;;;;6246116;22;20043;-77
2021/09/15 03:31:59;;;;;;;18.48;5.35;;;21.00;87.60;;;;;;6246091;23;20331;-77
2021/09/15 03:34:25;;;;;;;21.50;5.10;;;21.00;87.40;;;;;;6246177;22;20032;-78
2021/09/15 03:36:52;;;;;;;16.65;5.03;;;21.00;87.20;;;;;;6246231;22;20331;-78
2021/09/15 03:39:18;;;;;;;7.70;5.20;;;21.10;86.90;;;;;;6246094;22;20127;-77
2021/09/15 03:41:43;;;;;;;13.15;5.20;;;21.10;86.40;;;;;;6246080;22;20032;-77
2021/09/15 03:44:09;;;;;;;15.70;5.65;;;21.10;85.30;;;;;;6245790;23;20004;-76
2021/09/15 03:46:35;;;;;;;7.88;4.70;;;21.10;85.50;;;;;;6246234;23;20023;-79
2021/09/15 03:49:00;;;;;;;7.18;5.10;;;21.10;85.50;;;;;;6245999;23;20096;-77
2021/09/15 03:51:26;;;;;;;8.55;5.10;;;21.10;85.00;;;;;;6246179;23;19996;-77
2021/09/15 03:53:52;;;;;;;7.65;5.28;;;21.10;84.60;;;;;;6246071;22;20000;-77
2021/09/15 03:56:18;;;;;;;10.32;5.30;;;21.10;84.40;;;;;;6246085;22;19996;-78
2021/09/15 03:58:44;;;;;;;6.35;4.85;;;21.10;84.00;;;;;;6246132;22;20427;-77
2021/09/15 04:01:10;;;;;;;7.20;5.18;;;21.10;84.40;;;;;;6246069;23;20076;-77
2021/09/15 04:03:37;;;;;;;10.27;5.53;;;21.10;84.70;;;;;;6246240;22;20003;-77
2021/09/15 04:06:03;;;;;;;7.40;5.22;;;21.10;84.30;;;;;;6246952;22;20020;-76
2021/09/15 04:08:29;;;;;;;10.00;5.03;;;21.10;84.70;;;;;;6246538;23;20008;-78
2021/09/15 04:10:55;;;;;;;7.47;4.90;;;21.00;84.50;;;;;;6247996;22;20024;-78
2021/09/15 04:13:20;;;;;;;6.75;5.38;;;21.00;84.60;;;;;;6247968;23;20342;-79
2021/09/15 04:15:46;;;;;;;13.98;5.65;;;21.00;84.60;;;;;;6246170;23;20004;-77
2021/09/15 04:18:13;;;;;;;10.15;5.35;;;21.10;83.90;;;;;;6247926;23;20011;-77
2021/09/15 04:20:39;;;;;;;18.13;5.40;;;21.10;84.00;;;;;;6247836;22;19997;-78
2021/09/15 04:23:13;;;;;;;9.70;5.30;;;21.10;83.60;;;;;;6247892;22;20000;-77
2021/09/15 04:31:25;;;;;;;9.95;5.18;;;21.10;83.80;;;;;;6247757;23;20465;-77
2021/09/15 04:33:53;;;;;;;14.95;5.20;;;21.20;84.20;;;;;;6248029;22;20031;-78
2021/09/15 04:36:19;;;;;;;7.85;5.63;;;21.20;84.50;;;;;;6247968;22;20003;-77
2021/09/15 04:38:45;;;;;;;10.75;4.95;;;21.20;84.40;;;;;;6247674;22;20008;-76
2021/09/15 04:41:12;;;;;;;9.00;5.80;;;21.20;84.30;;;;;;6247506;23;20058;-78
2021/09/15 04:43:38;;;;;;;14.38;5.72;;;21.20;84.50;;;;;;6246066;23;20004;-77
2021/09/15 04:46:04;;;;;;;6.25;5.03;;;21.20;84.70;;;;;;6247952;22;20079;-77
2021/09/15 04:48:30;;;;;;;9.23;5.82;;;21.20;85.00;;;;;;6246507;23;20347;-77
2021/09/15 04:50:55;;;;;;;15.30;6.50;;;21.20;85.20;;;;;;6247747;22;20034;-77
2021/09/15 04:53:21;;;;;;;8.77;5.75;;;21.20;84.90;;;;;;6247692;22;20086;-78
2021/09/15 04:55:48;;;;;;;23.35;5.70;;;21.20;85.40;;;;;;6247540;22;20011;-77
2021/09/15 04:58:13;;;;;;;16.63;6.20;;;21.20;85.20;;;;;;6247495;22;20008;-77
2021/09/15 05:00:39;;;;;;;8.75;5.97;;;21.20;85.20;;;;;;6247553;23;20326;-79
2021/09/15 05:03:05;;;;;;;13.25;6.13;;;21.20;85.10;;;;;;6247623;23;20004;-78
2021/09/15 05:05:30;;;;;;;7.43;5.75;;;21.30;85.20;;;;;;6247421;23;20059;-78
2021/09/15 05:07:56;;;;;;;14.13;6.28;;;21.40;85.50;;;;;;6247339;23;20012;-81
2021/09/15 05:10:24;;;;;;;10.13;5.18;;;21.40;84.80;;;;;;6247263;23;20012;-76
2021/09/15 05:12:57;;;;;;;9.77;5.50;;;21.60;83.90;;;;;;6245643;23;20022;-76
2021/09/15 05:15:24;;;;;;;11.55;5.38;;;22.00;82.40;;;;;;6247402;22;20082;-77
2021/09/15 05:17:51;;;;;;;12.02;5.60;;;22.60;81.80;;;;;;6245097;23;20035;-77
2021/09/15 05:20:18;;;;;;;9.52;7.03;;;23.20;80.80;;;;;;6245643;23;20510;-76
2021/09/15 05:22:48;;;;;;;8.13;5.00;;;23.80;79.20;;;;;;6247081;22;20011;-78
2021/09/15 05:25:15;;;;;;;14.30;5.32;;;24.50;77.60;;;;;;6247248;22;19996;-77
2021/09/15 05:27:41;;;;;;;9.50;5.30;;;25.20;75.50;;;;;;6247550;22;20015;-77
2021/09/15 05:30:08;;;;;;;16.48;5.38;;;25.30;75.00;;;;;;6247458;22;20000;-78
2021/09/15 05:32:34;;;;;;;13.05;5.18;;;25.50;74.50;;;;;;6246916;22;20015;-82
2021/09/15 05:34:59;;;;;;;34.20;5.50;;;25.80;73.50;;;;;;6246999;22;20384;-77
2021/09/15 05:37:25;;;;;;;25.67;5.57;;;26.40;72.50;;;;;;6247079;23;20004;-76
2021/09/15 05:39:51;;;;;;;13.38;5.90;;;26.90;71.10;;;;;;6247463;23;20007;-77
2021/09/15 05:42:16;;;;;;;12.18;5.20;;;27.10;71.00;;;;;;6247353;23;20000;-76
2021/09/15 05:44:42;;;;;;;16.65;5.22;;;27.60;70.10;;;;;;6247185;23;20000;-77
2021/09/15 05:47:08;;;;;;;17.33;5.50;;;27.80;69.50;;;;;;6246773;23;20340;-77
2021/09/15 05:49:33;;;;;;;16.48;4.78;;;27.90;69.30;;;;;;6247211;23;20011;-76
2021/09/15 05:51:59;;;;;;;30.73;6.38;;;28.20;69.30;;;;;;6246781;23;20016;-77
2021/09/15 05:54:25;;;;;;;21.58;5.57;;;28.80;67.90;;;;;;6246875;23;19996;-77
2021/09/15 05:56:50;;;;;;;19.90;5.88;;;29.40;67.30;;;;;;6247143;23;20422;-78
2021/09/15 05:59:16;;;;;;;17.27;4.50;;;30.20;66.20;;;;;;6247019;23;20331;-78
2021/09/15 06:01:41;;;;;;;18.88;5.20;;;31.10;64.30;;;;;;6247056;23;20003;-77
2021/09/15 06:04:07;;;;;;;10.75;4.93;;;31.70;63.00;;;;;;6246830;23;20058;-74
2021/09/15 06:06:33;;;;;;;19.20;5.22;;;32.30;62.10;;;;;;6246812;23;20407;-73
2021/09/15 06:08:59;;;;;;;10.07;4.45;;;32.70;60.90;;;;;;6246319;22;20004;-74
2021/09/15 06:11:26;;;;;;;23.92;4.68;;;33.20;59.90;;;;;;6247144;22;20027;-75
2021/09/15 06:13:53;;;;;;;18.23;5.60;;;33.40;59.50;;;;;;6246808;22;20004;-74
2021/09/15 06:16:19;;;;;;;19.70;5.35;;;33.60;60.10;;;;;;6246784;22;20054;-73
2021/09/15 06:18:45;;;;;;;17.00;5.20;;;34.10;58.60;;;;;;6246810;23;20000;-74
2021/09/15 06:21:10;;;;;;;16.85;4.43;;;34.40;58.10;;;;;;6246525;23;20000;-76
2021/09/15 06:23:36;;;;;;;18.58;4.65;;;34.40;58.30;;;;;;6246921;23;20000;-73
2021/09/15 06:26:02;;;;;;;19.55;3.92;;;34.70;57.60;;;;;;6247064;22;20008;-80
2021/09/15 06:28:29;;;;;;;16.25;4.28;;;34.80;57.90;;;;;;6246150;23;20381;-73
2021/09/15 06:30:55;;;;;;;14.35;4.05;;;34.90;57.40;;;;;;6246657;22;20323;-75
2021/09/15 06:33:21;;;;;;;8.13;3.80;;;35.00;57.40;;;;;;6246344;22;20423;-79
2021/09/15 06:35:48;;;;;;;11.02;4.07;;;35.30;57.10;;;;;;6246775;22;20075;-75
2021/09/15 06:38:13;;;;;;;8.55;3.92;;;35.90;57.10;;;;;;6246683;22;20004;-77
2021/09/15 06:40:39;;;;;;;27.25;4.78;;;36.10;56.00;;;;;;6246821;23;20004;-74
2021/09/15 06:43:06;;;;;;;23.27;4.63;;;36.30;55.60;;;;;;6246781;22;19997;-83
2021/09/15 06:45:32;;;;;;;21.88;4.53;;;36.70;56.00;;;;;;6246180;22;20007;-74
2021/09/15 06:47:57;;;;;;;14.70;4.82;;;36.90;55.20;;;;;;6246581;22;20000;-80
2021/09/15 06:50:23;;;;;;;16.10;4.82;;;37.30;55.30;;;;;;6246484;23;20015;-73
2021/09/15 06:52:49;;;;;;;19.85;5.18;;;38.10;54.20;;;;;;6246365;23;20027;-75
2021/09/15 06:55:14;;;;;;;30.75;5.20;;;38.30;54.30;;;;;;6246588;23;20059;-73
2021/09/15 06:57:40;;;;;;;94.55;9.75;;;38.70;53.90;;;;;;6246412;23;20006;-76
2021/09/15 07:10:37;;;;;;;108.63;9.15;;;38.90;54.00;;;;;;5056484;27;1610306;-77
2021/09/15 07:13:03;;;;;;;44.22;6.10;;;42.50;51.20;;;;;;5110701;28;20469;-83
2021/09/15 07:15:29;;;;;;;27.35;5.78;;;42.80;50.60;;;;;;5111208;28;20032;-76
2021/09/15 07:17:54;;;;;;;10.98;5.07;;;43.40;49.50;;;;;;5110607;28;20084;-80
2021/09/15 07:20:21;;;;;;;26.17;5.55;;;43.30;49.50;;;;;;5111082;28;20393;-75
2021/09/15 07:22:47;;;;;;;20.63;5.38;;;43.30;49.30;;;;;;5111185;28;20027;-76
2021/09/15 07:25:13;;;;;;;16.73;4.28;;;42.50;49.90;;;;;;5110970;28;20081;-79
2021/09/15 07:27:39;;;;;;;16.15;4.22;;;43.00;50.20;;;;;;5110516;28;20065;-76
2021/09/15 07:30:06;;;;;;;19.50;4.68;;;43.90;48.90;;;;;;5110613;28;20024;-81
2021/09/15 07:32:32;;;;;;;16.48;4.50;;;44.40;48.40;;;;;;5110360;28;20462;-75
2021/09/15 07:34:57;;;;;;;21.52;4.32;;;45.00;47.80;;;;;;5110923;28;20019;-75
2021/09/15 07:37:23;;;;;;;10.55;4.50;;;45.10;47.40;;;;;;5110671;28;20023;-81
2021/09/15 07:39:50;;;;;;;16.73;4.75;;;45.30;47.30;;;;;;5110244;28;20474;-78
2021/09/15 07:42:16;;;;;;;23.77;5.00;;;45.70;46.70;;;;;;5110283;28;20047;-79
2021/09/15 07:44:42;;;;;;;27.88;4.45;;;45.40;46.60;;;;;;5110315;28;20109;-76
2021/09/15 07:47:07;;;;;;;46.10;5.80;;;45.80;46.50;;;;;;5110686;28;20024;-75
2021/09/15 07:49:33;;;;;;;26.52;4.75;;;46.00;46.00;;;;;;5110350;28;20474;-78
2021/09/15 07:51:59;;;;;;;32.70;4.93;;;46.20;46.20;;;;;;5110264;28;20363;-76
2021/09/15 07:54:24;;;;;;;44.80;5.45;;;46.50;45.90;;;;;;5110100;28;20019;-75
2021/09/15 07:56:50;;;;;;;36.47;5.88;;;46.70;46.10;;;;;;5110141;28;20441;-81
2021/09/15 07:59:16;;;;;;;44.58;6.60;;;46.70;46.20;;;;;;5110190;28;20487;-80
2021/09/15 08:01:41;;;;;;;44.13;5.55;;;46.30;46.60;;;;;;5110068;28;20055;-76
2021/09/15 08:04:07;;;;;;;23.73;4.07;;;46.20;46.60;;;;;;5110244;28;20031;-80
2021/09/15 08:06:32;;;;;;;14.70;3.63;;;46.50;46.00;;;;;;5109698;28;20054;-81
2021/09/15 08:08:58;;;;;;;18.13;3.45;;;46.20;45.90;;;;;;5109690;28;20076;-77
2021/09/15 08:11:24;;;;;;;16.90;3.67;;;45.90;46.20;;;;;;5097368;28;20020;-77
2021/09/15 08:13:51;;;;;;;16.00;3.13;;;45.70;46.40;;;;;;5096433;28;20463;-78
2021/09/15 08:16:17;;;;;;;8.38;3.35;;;45.60;46.50;;;;;;5096411;28;20027;-78
2021/09/15 08:18:42;;;;;;;8.98;3.45;;;45.50;46.80;;;;;;5095886;28;20036;-77
2021/09/15 08:21:08;;;;;;;11.25;3.08;;;45.40;46.90;;;;;;5096056;28;20031;-75
2021/09/15 08:23:34;;;;;;;15.77;3.20;;;45.60;46.70;;;;;;5096035;28;20028;-77
2021/09/15 08:25:59;;;;;;;11.73;2.83;;;45.30;47.00;;;;;;5095791;28;20017;-78
2021/09/15 08:28:25;;;;;;;7.57;3.20;;;45.10;47.30;;;;;;5095983;28;20024;-78
2021/09/15 08:30:51;;;;;;;13.50;3.25;;;45.10;47.00;;;;;;5096060;28;20024;-79
2021/09/15 08:33:16;;;;;;;12.05;3.40;;;44.90;47.30;;;;;;5096275;28;20031;-80
2021/09/15 08:35:42;;;;;;;10.70;4.22;;;44.60;47.50;;;;;;5077584;28;20036;-76
2021/09/15 08:38:12;;;;;;;13.40;3.67;;;44.20;47.80;;;;;;5095661;28;20027;-76
2021/09/15 08:40:38;;;;;;;4.80;3.10;;;43.40;48.80;;;;;;5096011;28;20482;-78
2021/09/15 08:43:04;;;;;;;12.15;3.72;;;42.70;49.20;;;;;;5095719;28;20027;-77
2021/09/15 08:45:30;;;;;;;7.95;3.85;;;41.90;49.90;;;;;;5095722;28;20024;-78
2021/09/15 08:47:57;;;;;;;12.02;3.58;;;41.40;50.90;;;;;;5095641;28;20057;-76
2021/09/15 08:50:23;;;;;;;78.88;7.03;;;40.80;51.40;;;;;;5095696;28;20046;-77
2021/09/15 08:52:49;;;;;;;11.38;3.70;;;40.10;52.00;;;;;;5095255;28;20095;-77
2021/09/15 08:55:15;;;;;;;6.47;3.67;;;39.40;52.80;;;;;;5095476;28;20095;-75
2021/09/15 08:57:41;;;;;;;9.55;3.97;;;38.50;54.30;;;;;;5095498;28;20482;-78
2021/09/15 09:00:09;;;;;;;10.23;3.35;;;37.90;55.10;;;;;;5095183;28;20120;-76
2021/09/15 09:02:37;;;;;;;13.15;3.97;;;37.60;55.70;;;;;;5077156;28;20028;-77
2021/09/15 09:05:04;;;;;;;8.45;4.20;;;37.10;56.00;;;;;;5095158;28;20098;-75
2021/09/15 09:07:31;;;;;;;11.05;3.60;;;36.80;56.30;;;;;;5095240;28;20378;-77
2021/09/15 09:10:00;;;;;;;9.45;4.00;;;36.40;56.80;;;;;;5094897;28;20394;-76
2021/09/15 09:12:28;;;;;;;15.25;4.00;;;36.10;57.10;;;;;;5095390;28;20103;-80
2021/09/15 09:15:25;;;;;;;7.75;4.18;;;35.70;57.60;;;;;;5095063;28;20046;-78
2021/09/15 09:17:52;;;;;;;6.93;4.40;;;35.60;58.20;;;;;;5094732;28;20416;-77
2021/09/15 09:20:28;;;;;;;16.33;4.20;;;35.00;59.30;;;;;;5094909;28;20034;-76
2021/09/15 09:23:13;;;;;;;8.70;4.47;;;34.20;60.50;;;;;;5094177;28;20023;-75
2021/09/15 09:25:56;;;;;;;5.95;4.60;;;33.90;62.70;;;;;;5094935;28;20093;-79
2021/09/15 09:28:31;;;;;;;9.98;4.72;;;33.90;63.90;;;;;;5094952;28;20031;-76
2021/09/15 09:31:01;;;;;;;13.35;5.13;;;33.90;65.30;;;;;;5094787;28;20032;-79
2021/09/15 09:33:27;;;;;;;10.95;4.75;;;33.90;65.90;;;;;;5076721;28;20074;-80
2021/09/15 09:35:57;;;;;;;10.35;5.07;;;34.00;67.00;;;;;;5094603;28;20039;-78
2021/09/15 09:38:30;;;;;;;11.32;5.15;;;34.20;67.30;;;;;;5094365;28;20028;-76
2021/09/15 09:40:59;;;;;;;21.23;4.60;;;34.40;68.90;;;;;;5094760;28;20107;-78
2021/09/15 09:43:27;;;;;;;12.02;4.40;;;34.50;69.10;;;;;;5094442;28;20035;-79
2021/09/15 09:45:52;;;;;;;11.93;5.20;;;34.60;68.50;;;;;;5093785;28;20020;-77
2021/09/15 09:48:37;;;;;;;12.27;5.35;;;34.30;71.10;;;;;;5094705;28;20501;-78
2021/09/15 09:51:21;;;;;;;14.27;6.25;;;34.20;72.50;;;;;;5094146;28;20020;-84
2021/09/15 09:53:47;;;;;;;14.15;6.68;;;33.90;73.50;;;;;;5094240;28;20031;-77
2021/09/15 09:56:13;;;;;;;10.20;5.07;;;33.80;74.20;;;;;;5094114;28;20024;-80
2021/09/15 09:58:43;;;;;;;22.52;5.47;;;33.70;74.00;;;;;;5094156;28;20397;-84
2021/09/15 10:01:14;;;;;;;15.17;6.10;;;33.60;75.00;;;;;;5094137;28;20028;-77
2021/09/15 10:03:40;;;;;;;11.80;5.53;;;33.40;74.90;;;;;;5094151;28;20052;-80
2021/09/15 10:06:06;;;;;;;14.75;5.85;;;33.40;74.80;;;;;;5075840;28;20105;-79
2021/09/15 10:08:34;;;;;;;11.95;4.78;;;33.60;75.00;;;;;;5093619;28;20473;-77
2021/09/15 10:11:00;;;;;;;19.77;4.82;;;33.70;74.20;;;;;;5094294;28;20048;-81
2021/09/15 10:13:26;;;;;;;14.68;5.80;;;33.60;73.70;;;;;;5093753;28;20020;-80
2021/09/15 10:15:58;;;;;;;13.48;5.13;;;33.80;73.60;;;;;;5093707;28;20386;-79
2021/09/15 10:18:24;;;;;;;8.20;5.15;;;33.60;73.00;;;;;;5093805;28;20035;-77
2021/09/15 10:20:55;;;;;;;7.68;4.55;;;33.60;74.00;;;;;;5093799;28;20039;-79
2021/09/15 10:23:38;;;;;;;8.13;5.10;;;33.60;73.30;;;;;;5093960;28;20020;-77
2021/09/15 10:26:43;;;;;;;9.75;5.40;;;33.40;73.50;;;;;;5093905;28;20466;-80
2021/09/15 10:29:28;;;;;;;10.85;4.93;;;33.50;74.10;;;;;;5093553;28;20035;-80
2021/09/15 10:32:10;;;;;;;17.63;5.40;;;33.30;72.90;;;;;;5093656;28;20034;-79
2021/09/15 10:34:39;;;;;;;10.65;5.20;;;33.20;74.10;;;;;;5093173;28;20515;-81
2021/09/15 10:37:13;;;;;;;11.30;5.45;;;33.20;75.90;;;;;;5093539;28;20078;-79
2021/09/15 10:39:59;;;;;;;13.32;6.13;;;33.20;77.00;;;;;;5093824;28;20503;-78
2021/09/15 10:45:14;;;;;;;17.88;4.78;;;33.30;76.20;;;;;;5092708;28;20036;-77
2021/09/15 10:47:48;;;;;;;10.88;5.07;;;33.30;75.90;;;;;;5093070;28;20466;-77
2021/09/15 10:50:29;;;;;;;13.57;4.95;;;33.40;75.20;;;;;;5093736;28;20097;-76
2021/09/15 10:53:07;;;;;;;9.02;5.70;;;33.40;75.40;;;;;;5075275;28;20024;-77
2021/09/15 10:55:44;;;;;;;7.20;4.78;;;33.30;75.50;;;;;;5093348;28;20118;-79
2021/09/15 10:58:10;;;;;;;15.68;5.63;;;33.10;74.80;;;;;;5092978;28;20020;-81
2021/09/15 11:00:49;;;;;;;26.65;6.43;;;32.90;77.30;;;;;;5092819;28;20028;-80
2021/09/15 11:03:30;;;;;;;15.00;6.10;;;32.60;78.20;;;;;;5075293;28;20067;-77
2021/09/15 11:06:08;;;;;;;15.15;7.15;;;32.70;80.90;;;;;;5093011;28;20028;-79
2021/09/15 11:08:43;;;;;;;13.35;6.78;;;32.60;82.30;;;;;;5092622;28;20066;-81
2021/09/15 11:11:31;;;;;;;16.27;6.13;;;32.70;83.30;;;;;;5093002;28;20024;-82
2021/09/15 11:14:07;;;;;;;17.50;6.35;;;32.70;83.00;;;;;;5082750;28;20093;-76
2021/09/15 11:16:33;;;;;;;83.82;60.17;;;32.70;82.30;;;;;;5093242;28;20028;-77
2021/09/15 11:19:10;;;;;;;34.83;20.00;;;32.50;81.10;;;;;;5092951;28;20037;-77
2021/09/15 11:21:41;;;;;;;15.18;8.70;;;32.30;80.20;;;;;;5093298;28;20027;-77
2021/09/15 11:24:11;;;;;;;12.60;6.80;;;32.20;80.90;;;;;;5093306;28;20058;-76
2021/09/15 11:26:46;;;;;;;15.93;6.88;;;32.20;82.60;;;;;;5093330;28;20054;-80
2021/09/15 11:29:13;;;;;;;20.88;7.25;;;32.00;83.30;;;;;;5072364;28;20024;-76
2021/09/15 11:31:41;;;;;;;20.02;7.32;;;32.00;83.30;;;;;;5092872;28;20118;-74
2021/09/15 11:34:12;;;;;;;15.93;6.45;;;31.90;84.10;;;;;;5093005;28;20024;-81
2021/09/15 11:36:39;;;;;;;14.43;6.47;;;31.90;84.10;;;;;;5092861;28;20026;-75
2021/09/15 11:39:07;;;;;;;18.92;6.82;;;31.80;84.50;;;;;;5092878;28;20032;-76
2021/09/15 11:41:34;;;;;;;10.77;6.22;;;31.70;84.00;;;;;;5092946;28;20031;-76
2021/09/15 11:43:59;;;;;;;12.82;6.05;;;31.60;84.50;;;;;;5092824;28;20032;-76
2021/09/15 11:46:34;;;;;;;11.48;5.88;;;31.60;84.30;;;;;;5095554;28;20370;-77
2021/09/15 11:49:00;;;;;;;15.00;7.00;;;31.50;84.00;;;;;;5078385;28;20024;-77
2021/09/15 11:51:26;;;;;;;8.40;5.80;;;31.40;84.90;;;;;;5096750;28;20024;-76
2021/09/15 11:54:00;;;;;;;15.68;6.30;;;31.20;86.10;;;;;;5096710;28;20366;-78
2021/09/15 11:56:43;;;;;;;8.98;6.38;;;31.10;86.80;;;;;;5096484;28;20103;-77
2021/09/15 11:59:11;;;;;;;25.83;6.82;;;30.90;88.70;;;;;;5096346;28;20032;-75
2021/09/15 12:01:40;;;;;;;14.30;7.05;;;30.70;90.10;;;;;;5096303;28;20024;-76
2021/09/15 12:04:07;;;;;;;15.15;7.72;;;30.60;90.90;;;;;;5096447;28;20028;-77
2021/09/15 12:06:33;;;;;;;7.97;6.88;;;30.60;91.60;;;;;;5096656;28;20016;-77
2021/09/15 12:08:59;;;;;;;15.23;7.45;;;30.50;92.00;;;;;;5095763;28;20044;-76
2021/09/15 12:11:33;;;;;;;10.63;7.70;;;30.50;93.10;;;;;;5096236;28;20074;-77
2021/09/15 12:14:01;;;;;;;11.80;8.05;;;30.40;93.10;;;;;;5096274;28;20502;-77
2021/09/15 12:16:32;;;;;;;11.98;8.18;;;30.20;93.70;;;;;;5096003;28;20017;-78
2021/09/15 12:18:58;;;;;;;16.20;8.15;;;30.20;94.40;;;;;;5096012;28;20077;-76
2021/09/15 12:21:26;;;;;;;17.58;9.30;;;30.10;94.90;;;;;;5095844;28;20634;-76
2021/09/15 12:24:00;;;;;;;27.20;9.18;;;30.00;95.40;;;;;;5095962;28;20035;-77
2021/09/15 12:26:27;;;;;;;13.60;7.97;;;29.90;96.30;;;;;;5096105;28;20012;-79
2021/09/15 12:29:29;;;;;;;12.43;8.63;;;29.80;97.00;;;;;;5096151;28;20108;-76
2021/09/15 12:32:01;;;;;;;12.35;9.82;;;29.70;97.50;;;;;;5035637;28;20381;-78
2021/09/15 12:34:35;;;;;;;23.02;9.57;;;29.70;98.10;;;;;;5095696;28;20024;-75
2021/09/15 12:37:14;;;;;;;20.92;10.93;;;29.70;98.90;;;;;;5095916;28;20031;-77
2021/09/15 12:40:01;;;;;;;11.55;9.30;;;29.60;99.10;;;;;;5095687;28;20068;-79
2021/09/15 12:42:35;;;;;;;17.55;10.32;;;29.50;99.90;;;;;;5095880;28;20016;-80
2021/09/15 12:45:09;;;;;;;21.20;10.00;;;29.40;99.90;;;;;;5095954;28;20064;-78
2021/09/15 12:47:44;;;;;;;15.18;9.90;;;29.20;99.90;;;;;;5095285;28;20536;-75
2021/09/15 12:50:17;;;;;;;13.95;9.23;;;29.10;99.90;;;;;;5077618;28;20035;-76
2021/09/15 12:52:44;;;;;;;17.23;10.15;;;29.10;99.90;;;;;;5095415;28;20385;-75
2021/09/15 12:55:22;;;;;;;13.27;9.32;;;29.10;99.90;;;;;;5095364;28;20028;-77
2021/09/15 12:58:04;;;;;;;16.33;9.45;;;29.20;99.90;;;;;;5095147;28;20474;-78
2021/09/15 13:00:32;;;;;;;166.05;111.03;;;29.20;99.90;;;;;;5095033;28;20032;-76
2021/09/15 13:02:59;;;;;;;24.27;14.02;;;29.20;99.90;;;;;;5095223;28;20016;-75
2021/09/15 13:05:25;;;;;;;34.30;15.13;;;29.20;99.90;;;;;;5095232;28;20024;-76
2021/09/15 13:07:55;;;;;;;19.67;11.95;;;29.00;99.90;;;;;;5095063;28;20020;-76
2021/09/15 13:10:22;;;;;;;25.50;11.52;;;28.90;99.90;;;;;;5095234;28;20044;-80
2021/09/15 13:12:47;;;;;;;18.77;12.82;;;28.90;99.90;;;;;;5095345;28;20437;-75
2021/09/15 13:15:13;;;;;;;31.42;12.38;;;28.90;99.90;;;;;;5094857;28;20020;-74
2021/09/15 13:17:39;;;;;;;32.60;11.43;;;28.90;99.90;;;;;;5094960;28;20038;-76
2021/09/15 13:20:06;;;;;;;18.85;10.77;;;28.90;99.90;;;;;;5094824;28;20467;-76
2021/09/15 13:22:32;;;;;;;18.02;11.57;;;28.90;99.90;;;;;;5095189;28;20012;-75
2021/09/15 13:24:58;;;;;;;22.77;11.45;;;28.90;99.90;;;;;;5094967;28;20034;-77
2021/09/15 13:27:24;;;;;;;26.50;11.23;;;28.90;99.90;;;;;;5094793;28;20066;-76
2021/09/15 13:29:49;;;;;;;21.50;10.63;;;28.80;99.90;;;;;;5094675;28;20032;-76
2021/09/15 13:32:15;;;;;;;16.50;10.60;;;28.90;99.90;;;;;;5094389;28;20047;-75
2021/09/15 13:34:41;;;;;;;19.63;10.63;;;28.90;99.90;;;;;;5094794;28;20093;-77
2021/09/15 13:37:08;;;;;;;24.63;11.60;;;28.90;99.90;;;;;;5094294;28;20095;-75
2021/09/15 13:39:34;;;;;;;21.15;11.68;;;28.90;99.90;;;;;;5094420;28;20028;-76
2021/09/15 13:42:01;;;;;;;24.15;10.75;;;29.00;99.90;;;;;;5094525;28;20069;-75
2021/09/15 13:44:27;;;;;;;27.98;11.27;;;29.00;99.90;;;;;;5094406;28;20035;-75
2021/09/15 13:46:53;;;;;;;25.65;11.35;;;29.10;99.90;;;;;;5093989;28;20028;-75
2021/09/15 13:49:20;;;;;;;24.40;12.05;;;29.10;99.90;;;;;;5094885;28;20073;-77
2021/09/15 13:51:52;;;;;;;26.60;11.30;;;29.20;99.90;;;;;;5094230;28;20031;-76
2021/09/15 13:54:18;;;;;;;25.48;10.48;;;29.30;99.90;;;;;;5094319;28;20031;-75
2021/09/15 13:56:44;;;;;;;19.77;10.75;;;29.30;99.90;;;;;;5094080;28;20016;-80
2021/09/15 13:59:10;;;;;;;57.63;12.52;;;29.40;99.90;;;;;;5076321;28;20040;-84
2021/09/15 14:01:35;;;;;;;32.75;11.07;;;29.30;99.90;;;;;;5093743;28;20378;-75
2021/09/15 14:04:01;;;;;;;18.38;10.35;;;29.30;99.90;;;;;;5094237;28;20505;-77
2021/09/15 14:06:27;;;;;;;20.00;10.77;;;29.30;99.90;;;;;;5094023;28;20032;-76
2021/09/15 14:08:52;;;;;;;28.58;11.77;;;29.40;99.90;;;;;;5075030;28;20558;-76
2021/09/15 14:11:18;;;;;;;25.40;12.02;;;29.40;99.90;;;;;;5094169;28;20024;-78